KRST/RST METAR and TAF weather

Enter ICAO airport designator
Station Type Date Time Source
KRST METAR 2021/01/22 06:54 UTC NOAA

KRST 220654Z AUTO 31014KT 10SM CLR M15/M19 A3004 RMK AO2 SLP197 T11501189


Station Type Date Time Source
KRST Decoded METAR 2021/01/22 06:54 UTC NOAA

ROCHESTER INTERNATIONAL AIRPORT , MN, United States (KRST) 43-54N 092-30W 403M
Jan 22, 2021 - 01:54 AM EST / 2021.01.22 0654 UTC
Wind: from the NW (310 degrees) at 16 MPH (14 KT):0
Visibility: 10 mile(s):0
Sky conditions: clear
Temperature: 5.0 F (-15.0 C)
Windchill: -13 F (-25 C):2
Dew Point: -2.0 F (-18.9 C)
Relative Humidity: 72%
Pressure (altimeter): 30.04 in. Hg (1017 hPa)
ob: KRST 220654Z AUTO 31014KT 10SM CLR M15/M19 A3004 RMK AO2 SLP197 T11501189
cycle: 7

Station Type Date Time Source
KRST TAF 2021/01/22 06:22 UTC NOAA

TAF KRST 220520Z 2206/2306 32014KT P6SM SKC
FM221200 31010KT P6SM SKC
FM230000 25006KT P6SM SKC

Example: see airport list